createdAt,value
2023-01-06T00:00:17.753Z,12.35
2023-01-06T00:05:23.953Z,12.64
2023-01-06T00:10:30.131Z,13.70
2023-01-06T00:15:36.333Z,14.12
2023-01-06T00:20:42.524Z,14.21
2023-01-06T00:25:48.610Z,14.54
2023-01-06T00:30:54.851Z,14.26
2023-01-06T00:36:00.948Z,14.93
2023-01-06T00:41:07.256Z,14.97
2023-01-06T00:46:13.446Z,15.08
2023-01-06T00:51:20.435Z,14.52
2023-01-06T00:56:26.597Z,14.77
2023-01-06T01:01:32.997Z,15.97
2023-01-06T01:06:39.071Z,15.23
2023-01-06T01:11:45.379Z,15.19
2023-01-06T01:16:51.493Z,15.52
2023-01-06T01:21:57.704Z,15.14
2023-01-06T01:27:03.796Z,15.60
2023-01-06T01:32:09.976Z,15.53
2023-01-06T01:37:16.198Z,15.46
2023-01-06T01:42:22.351Z,14.66
2023-01-06T01:47:28.489Z,15.10
2023-01-06T01:52:34.694Z,15.30
2023-01-06T01:57:40.761Z,15.79
2023-01-06T02:02:47.096Z,15.54
2023-01-06T02:07:53.216Z,16.17
2023-01-06T02:12:59.386Z,15.72
2023-01-06T02:18:05.447Z,15.69
2023-01-06T02:23:11.684Z,15.65
2023-01-06T02:28:17.758Z,15.22
2023-01-06T02:33:23.984Z,14.75
2023-01-06T02:38:30.062Z,14.32
2023-01-06T02:43:36.407Z,13.32
2023-01-06T02:48:42.589Z,13.09
2023-01-06T02:53:48.907Z,12.81
2023-01-06T02:58:55.003Z,11.97
2023-01-06T03:04:01.248Z,11.36
2023-01-06T03:09:07.335Z,11.31
2023-01-06T03:14:13.569Z,11.18
2023-01-06T03:19:19.640Z,10.87
2023-01-06T03:24:25.871Z,10.41
2023-01-06T03:29:32.028Z,9.79
2023-01-06T03:34:38.216Z,9.06
2023-01-06T03:39:44.310Z,9.55
2023-01-06T03:44:50.931Z,8.83
2023-01-06T03:49:57.060Z,8.48
2023-01-06T03:55:03.368Z,8.55
2023-01-06T04:00:09.533Z,8.51
2023-01-06T04:05:15.750Z,8.01
2023-01-06T04:10:21.876Z,7.76
2023-01-06T04:15:28.113Z,7.21
2023-01-06T04:20:34.256Z,7.59
2023-01-06T04:25:40.450Z,7.48
2023-01-06T04:30:46.601Z,7.12
2023-01-06T04:35:52.922Z,7.35
2023-01-06T04:40:59.012Z,7.69
2023-01-06T04:46:05.264Z,8.72
2023-01-06T04:51:11.316Z,9.62
2023-01-06T04:56:17.544Z,10.07
2023-01-06T05:01:23.842Z,10.61
2023-01-06T05:06:29.929Z,10.60
2023-01-06T05:11:36.011Z,10.73
2023-01-06T05:16:42.739Z,10.81
2023-01-06T05:21:48.864Z,9.99
2023-01-06T05:26:55.070Z,10.20
2023-01-06T05:32:01.101Z,9.81
2023-01-06T05:37:07.367Z,9.53
2023-01-06T05:42:13.451Z,9.45
2023-01-06T05:47:19.660Z,8.78
2023-01-06T05:52:25.799Z,8.54
2023-01-06T05:57:32.027Z,8.05
2023-01-06T06:02:38.182Z,8.09
2023-01-06T06:07:44.389Z,7.58
2023-01-06T06:12:50.553Z,7.19
2023-01-06T06:17:56.692Z,7.73
2023-01-06T06:23:02.819Z,6.49
2023-01-06T06:28:09.031Z,6.20
2023-01-06T06:33:15.463Z,5.71
2023-01-06T06:38:22.136Z,5.37
2023-01-06T06:43:29.074Z,5.48
2023-01-06T06:48:35.284Z,4.86
2023-01-06T06:53:41.447Z,4.25
2023-01-06T06:58:47.805Z,4.47
2023-01-06T07:03:53.924Z,4.14
2023-01-06T07:09:00.140Z,4.11
2023-01-06T07:14:06.296Z,3.72
2023-01-06T07:19:12.473Z,3.60
2023-01-06T07:24:18.554Z,3.23
2023-01-06T07:29:24.712Z,3.24
2023-01-06T07:34:30.785Z,3.01
2023-01-06T07:39:36.916Z,2.86
2023-01-06T07:44:43.089Z,2.70
2023-01-06T07:49:49.309Z,2.67
2023-01-06T07:54:55.368Z,2.20
2023-01-06T08:00:01.627Z,2.14
2023-01-06T08:05:07.798Z,2.17
2023-01-06T08:10:13.972Z,1.98
2023-01-06T08:15:20.037Z,2.29
2023-01-06T08:20:26.350Z,2.32
2023-01-06T08:25:32.505Z,2.36
2023-01-06T08:30:38.768Z,2.26
2023-01-06T08:35:44.917Z,2.36
2023-01-06T08:40:51.188Z,2.40
2023-01-06T08:45:57.265Z,2.57
2023-01-06T08:51:03.975Z,2.47
2023-01-06T08:56:10.112Z,2.75
2023-01-06T09:01:16.490Z,2.71
2023-01-06T09:06:22.397Z,2.77
2023-01-06T09:11:28.682Z,2.74
2023-01-06T09:16:34.853Z,2.83
2023-01-06T09:21:42.787Z,2.50
2023-01-06T09:26:49.226Z,2.06
2023-01-06T09:31:55.390Z,1.70
2023-01-06T09:37:01.490Z,1.60
2023-01-06T09:42:07.736Z,1.76
2023-01-06T09:47:13.796Z,1.60
2023-01-06T09:52:53.270Z,1.68
2023-01-06T09:57:59.363Z,1.60
2023-01-06T10:03:05.572Z,1.50
2023-01-06T10:08:11.717Z,1.31
2023-01-06T10:13:17.945Z,1.00
2023-01-06T10:18:24.140Z,1.07
2023-01-06T10:23:30.316Z,1.43
2023-01-06T10:28:36.485Z,1.12
2023-01-06T10:33:42.674Z,1.01
2023-01-06T10:38:48.764Z,1.15
2023-01-06T10:43:54.933Z,0.98
2023-01-06T10:49:01.036Z,1.10
2023-01-06T10:54:07.226Z,1.02
2023-01-06T10:59:13.349Z,0.99
2023-01-06T11:04:19.533Z,1.21
2023-01-06T11:09:25.620Z,1.22
2023-01-06T11:14:31.804Z,1.12
2023-01-06T11:19:37.953Z,1.12
2023-01-06T11:24:44.072Z,1.25
2023-01-06T11:29:50.113Z,1.19
2023-01-06T11:34:56.337Z,0.94
2023-01-06T11:40:05.618Z,1.13
2023-01-06T11:45:08.221Z,1.26
2023-01-06T11:50:14.348Z,1.33
2023-01-06T11:55:20.538Z,1.28
2023-01-06T12:00:26.703Z,1.19
2023-01-06T12:05:33.648Z,1.16
2023-01-06T12:10:39.778Z,1.20
2023-01-06T12:15:46.063Z,1.18
2023-01-06T12:20:52.289Z,1.18
2023-01-06T12:25:58.967Z,1.22
2023-01-06T12:31:05.450Z,1.26
2023-01-06T12:36:12.022Z,1.28
2023-01-06T12:41:19.404Z,1.25
2023-01-06T12:46:25.730Z,1.48
2023-01-06T12:51:31.928Z,1.33
2023-01-06T12:56:38.067Z,1.17
2023-01-06T13:01:44.275Z,1.43
2023-01-06T13:06:50.350Z,1.20
2023-01-06T13:11:56.495Z,1.18
2023-01-06T13:17:02.639Z,1.30
2023-01-06T13:22:08.711Z,1.43
2023-01-06T13:27:14.975Z,1.58
2023-01-06T13:32:21.023Z,1.24
2023-01-06T13:37:27.187Z,1.13
2023-01-06T13:42:33.225Z,1.45
2023-01-06T13:47:39.541Z,1.88
2023-01-06T13:52:45.605Z,1.80
2023-01-06T13:57:51.785Z,1.53
2023-01-06T14:02:57.879Z,1.66
2023-01-06T14:08:04.002Z,1.46
2023-01-06T14:13:10.167Z,1.56
2023-01-06T14:18:16.414Z,1.49
2023-01-06T14:23:22.520Z,2.23
2023-01-06T14:28:28.684Z,2.30
2023-01-06T14:33:34.819Z,4.99
2023-01-06T14:38:41.105Z,2.19
2023-01-06T14:43:47.184Z,2.12
2023-01-06T14:48:53.404Z,1.77
2023-01-06T14:53:59.502Z,1.82
2023-01-06T14:59:05.760Z,1.62
2023-01-06T15:04:11.838Z,1.76
2023-01-06T15:09:18.599Z,1.36
2023-01-06T15:14:24.766Z,1.47
2023-01-06T15:19:31.069Z,1.73
2023-01-06T15:24:37.251Z,1.61
2023-01-06T15:29:43.505Z,1.56
2023-01-06T15:34:49.594Z,1.38
2023-01-06T15:39:55.909Z,1.57
2023-01-06T15:45:02.312Z,1.64
2023-01-06T15:50:08.422Z,1.48
2023-01-06T15:55:14.506Z,1.37
2023-01-06T16:00:20.727Z,1.77
2023-01-06T16:05:26.868Z,1.29
2023-01-06T16:10:33.000Z,1.67
2023-01-06T16:15:39.219Z,3.74
2023-01-06T16:20:45.349Z,2.13
2023-01-06T16:25:51.528Z,1.56
2023-01-06T16:30:57.751Z,1.95
2023-01-06T16:36:03.882Z,1.40
2023-01-06T16:41:10.273Z,1.64
2023-01-06T16:46:16.503Z,1.73
2023-01-06T16:51:22.678Z,1.50
2023-01-06T16:56:28.715Z,1.63
2023-01-06T17:01:34.992Z,1.64
2023-01-06T17:06:40.992Z,1.60
2023-01-06T17:11:47.166Z,1.67
2023-01-06T17:16:53.317Z,1.52
2023-01-06T17:21:59.543Z,1.69
2023-01-06T17:27:05.628Z,1.59
2023-01-06T17:32:11.786Z,1.81
2023-01-06T17:37:17.951Z,1.66
2023-01-06T17:42:24.155Z,1.74
2023-01-06T17:47:30.327Z,1.62
2023-01-06T17:52:36.542Z,1.78
2023-01-06T17:57:43.609Z,2.31
2023-01-06T18:02:48.487Z,2.07
2023-01-06T18:07:54.620Z,2.09
2023-01-06T18:13:00.768Z,2.17
2023-01-06T18:18:06.874Z,2.03
2023-01-06T18:23:13.283Z,2.10
2023-01-06T18:28:19.454Z,2.33
2023-01-06T18:33:25.603Z,2.19
2023-01-06T18:38:31.704Z,2.36
2023-01-06T18:43:37.910Z,2.14
2023-01-06T18:48:43.965Z,1.97
2023-01-06T18:53:50.149Z,2.39
2023-01-06T18:58:56.232Z,2.23
2023-01-06T19:04:02.691Z,2.58
2023-01-06T19:09:08.651Z,2.35
2023-01-06T19:14:14.837Z,2.69
2023-01-06T19:19:21.047Z,2.76
2023-01-06T19:24:27.378Z,2.66
2023-01-06T19:29:33.434Z,2.58
2023-01-06T19:34:39.557Z,2.58
2023-01-06T19:39:47.520Z,2.63
2023-01-06T19:44:51.589Z,3.09
2023-01-06T19:49:57.651Z,3.03
2023-01-06T19:55:03.894Z,2.74
2023-01-06T20:00:10.021Z,3.05
2023-01-06T20:05:16.344Z,2.90
2023-01-06T20:10:22.497Z,3.05
2023-01-06T20:15:28.668Z,3.10
2023-01-06T20:20:34.831Z,3.35
2023-01-06T20:25:41.052Z,3.23
2023-01-06T20:30:47.126Z,3.19
2023-01-06T20:35:53.285Z,3.67
2023-01-06T20:40:59.487Z,4.09
2023-01-06T20:46:05.996Z,3.75
2023-01-06T20:51:11.965Z,3.88
2023-01-06T20:56:18.115Z,4.03
2023-01-06T21:01:24.429Z,3.96
2023-01-06T21:06:30.694Z,3.91
2023-01-06T21:11:36.853Z,4.21
2023-01-06T21:16:43.016Z,3.82
2023-01-06T21:21:49.104Z,4.06
2023-01-06T21:26:55.318Z,3.98
2023-01-06T21:32:01.477Z,4.08
2023-01-06T21:37:07.675Z,3.66
2023-01-06T21:42:13.836Z,4.00
2023-01-06T21:47:20.087Z,3.95
2023-01-06T21:52:26.191Z,3.60
2023-01-06T21:57:32.441Z,3.91
2023-01-06T22:02:38.608Z,3.91
2023-01-06T22:07:44.872Z,4.06
2023-01-06T22:12:50.945Z,3.86
2023-01-06T22:17:57.387Z,4.39
2023-01-06T22:23:03.528Z,4.30
2023-01-06T22:28:09.856Z,5.36
2023-01-06T22:33:18.725Z,5.43
2023-01-06T22:38:24.905Z,5.83
2023-01-06T22:43:31.163Z,5.46
2023-01-06T22:48:37.500Z,6.11
2023-01-06T22:53:43.684Z,5.49
2023-01-06T22:58:49.872Z,5.83
2023-01-06T23:03:56.025Z,6.25
2023-01-06T23:09:02.319Z,6.26
2023-01-06T23:14:08.519Z,6.56
2023-01-06T23:19:15.194Z,7.45
2023-01-06T23:24:21.357Z,7.04
2023-01-06T23:29:27.560Z,8.11
2023-01-06T23:34:33.720Z,8.49
2023-01-06T23:39:42.292Z,8.81
2023-01-06T23:44:48.437Z,8.95
2023-01-06T23:49:54.766Z,9.31
2023-01-06T23:55:00.917Z,9.35
